sensor_id;sensor_type;location;lat;lon;timestamp;P1;durP1;ratioP1;P2;durP2;ratioP2
73940;SDS011;62294;48.554;10.202;2022-12-07T00:01:26;7.63;;;4.22;;
73940;SDS011;62294;48.554;10.202;2022-12-07T00:03:55;9.13;;;4.60;;
73940;SDS011;62294;48.554;10.202;2022-12-07T00:06:27;8.77;;;4.40;;
73940;SDS011;62294;48.554;10.202;2022-12-07T00:08:53;13.15;;;5.63;;
73940;SDS011;62294;48.554;10.202;2022-12-07T00:11:20;8.38;;;4.60;;
73940;SDS011;62294;48.554;10.202;2022-12-07T00:13:51;9.93;;;4.72;;
73940;SDS011;62294;48.554;10.202;2022-12-07T00:16:23;9.65;;;4.70;;
73940;SDS011;62294;48.554;10.202;2022-12-07T00:18:51;9.20;;;4.85;;
73940;SDS011;62294;48.554;10.202;2022-12-07T00:21:19;10.75;;;4.85;;
73940;SDS011;62294;48.554;10.202;2022-12-07T00:23:47;8.43;;;4.43;;
73940;SDS011;62294;48.554;10.202;2022-12-07T00:26:22;9.10;;;5.18;;
73940;SDS011;62294;48.554;10.202;2022-12-07T00:28:52;8.07;;;4.72;;
73940;SDS011;62294;48.554;10.202;2022-12-07T00:31:21;9.82;;;5.30;;
73940;SDS011;62294;48.554;10.202;2022-12-07T00:33:49;9.48;;;5.43;;
73940;SDS011;62294;48.554;10.202;2022-12-07T00:36:17;10.90;;;5.30;;
73940;SDS011;62294;48.554;10.202;2022-12-07T00:38:52;11.88;;;5.00;;
73940;SDS011;62294;48.554;10.202;2022-12-07T00:41:20;10.27;;;5.50;;
73940;SDS011;62294;48.554;10.202;2022-12-07T00:43:49;10.07;;;5.60;;
73940;SDS011;62294;48.554;10.202;2022-12-07T00:46:16;10.75;;;5.25;;
73940;SDS011;62294;48.554;10.202;2022-12-07T00:48:44;9.82;;;5.38;;
73940;SDS011;62294;48.554;10.202;2022-12-07T00:51:11;11.32;;;5.25;;
73940;SDS011;62294;48.554;10.202;2022-12-07T00:53:39;10.70;;;5.40;;
73940;SDS011;62294;48.554;10.202;2022-12-07T00:56:08;10.30;;;5.43;;
73940;SDS011;62294;48.554;10.202;2022-12-07T00:58:37;12.70;;;6.05;;
73940;SDS011;62294;48.554;10.202;2022-12-07T01:01:05;9.43;;;5.47;;
73940;SDS011;62294;48.554;10.202;2022-12-07T01:03:32;9.88;;;5.30;;
73940;SDS011;62294;48.554;10.202;2022-12-07T01:05:59;11.40;;;5.60;;
73940;SDS011;62294;48.554;10.202;2022-12-07T01:08:26;9.95;;;5.22;;
73940;SDS011;62294;48.554;10.202;2022-12-07T01:10:59;11.05;;;5.65;;
73940;SDS011;62294;48.554;10.202;2022-12-07T01:13:29;11.60;;;6.18;;
73940;SDS011;62294;48.554;10.202;2022-12-07T01:15:57;10.55;;;5.75;;
73940;SDS011;62294;48.554;10.202;2022-12-07T01:18:29;11.82;;;5.55;;
73940;SDS011;62294;48.554;10.202;2022-12-07T01:20:57;10.43;;;5.70;;
73940;SDS011;62294;48.554;10.202;2022-12-07T01:23:36;10.95;;;4.88;;
73940;SDS011;62294;48.554;10.202;2022-12-07T01:26:04;10.50;;;5.65;;
73940;SDS011;62294;48.554;10.202;2022-12-07T01:28:32;8.40;;;4.50;;
73940;SDS011;62294;48.554;10.202;2022-12-07T01:31:01;9.23;;;4.97;;
73940;SDS011;62294;48.554;10.202;2022-12-07T01:33:33;9.55;;;5.30;;
73940;SDS011;62294;48.554;10.202;2022-12-07T01:36:08;10.43;;;5.53;;
73940;SDS011;62294;48.554;10.202;2022-12-07T01:38:43;11.77;;;5.45;;
73940;SDS011;62294;48.554;10.202;2022-12-07T01:41:12;10.45;;;5.53;;
73940;SDS011;62294;48.554;10.202;2022-12-07T01:46:36;9.93;;;5.55;;
73940;SDS011;62294;48.554;10.202;2022-12-07T01:49:04;10.68;;;5.43;;
73940;SDS011;62294;48.554;10.202;2022-12-07T01:51:35;10.70;;;5.47;;
73940;SDS011;62294;48.554;10.202;2022-12-07T01:54:06;9.77;;;5.38;;
73940;SDS011;62294;48.554;10.202;2022-12-07T01:56:33;11.20;;;6.15;;
73940;SDS011;62294;48.554;10.202;2022-12-07T01:59:00;12.73;;;6.57;;
73940;SDS011;62294;48.554;10.202;2022-12-07T02:01:27;12.52;;;6.30;;
73940;SDS011;62294;48.554;10.202;2022-12-07T02:03:54;12.27;;;6.65;;
73940;SDS011;62294;48.554;10.202;2022-12-07T02:06:22;12.68;;;6.28;;
73940;SDS011;62294;48.554;10.202;2022-12-07T02:08:51;11.48;;;6.07;;
73940;SDS011;62294;48.554;10.202;2022-12-07T02:11:19;13.68;;;6.53;;
73940;SDS011;62294;48.554;10.202;2022-12-07T02:13:47;12.38;;;6.03;;
73940;SDS011;62294;48.554;10.202;2022-12-07T02:19:01;13.38;;;5.80;;
73940;SDS011;62294;48.554;10.202;2022-12-07T02:22:01;11.90;;;5.93;;
73940;SDS011;62294;48.554;10.202;2022-12-07T02:27:46;12.23;;;5.82;;
73940;SDS011;62294;48.554;10.202;2022-12-07T02:30:18;16.55;;;6.45;;
73940;SDS011;62294;48.554;10.202;2022-12-07T02:32:51;11.80;;;5.68;;
73940;SDS011;62294;48.554;10.202;2022-12-07T02:35:26;12.75;;;5.93;;
73940;SDS011;62294;48.554;10.202;2022-12-07T02:43:18;14.23;;;6.93;;
73940;SDS011;62294;48.554;10.202;2022-12-07T02:45:55;15.55;;;6.97;;
73940;SDS011;62294;48.554;10.202;2022-12-07T02:48:27;14.77;;;6.00;;
73940;SDS011;62294;48.554;10.202;2022-12-07T02:50:55;12.57;;;6.50;;
73940;SDS011;62294;48.554;10.202;2022-12-07T02:53:31;10.27;;;5.35;;
73940;SDS011;62294;48.554;10.202;2022-12-07T02:56:00;15.00;;;7.07;;
73940;SDS011;62294;48.554;10.202;2022-12-07T02:58:34;14.98;;;6.38;;
73940;SDS011;62294;48.554;10.202;2022-12-07T03:01:17;13.40;;;6.68;;
73940;SDS011;62294;48.554;10.202;2022-12-07T03:03:51;12.73;;;6.15;;
73940;SDS011;62294;48.554;10.202;2022-12-07T03:06:31;14.95;;;6.75;;
73940;SDS011;62294;48.554;10.202;2022-12-07T03:09:26;17.88;;;8.27;;
73940;SDS011;62294;48.554;10.202;2022-12-07T03:12:10;17.15;;;7.38;;
73940;SDS011;62294;48.554;10.202;2022-12-07T03:14:55;13.83;;;7.17;;
73940;SDS011;62294;48.554;10.202;2022-12-07T03:17:27;12.73;;;6.10;;
73940;SDS011;62294;48.554;10.202;2022-12-07T03:20:00;14.75;;;7.93;;
73940;SDS011;62294;48.554;10.202;2022-12-07T03:22:31;14.82;;;7.22;;
73940;SDS011;62294;48.554;10.202;2022-12-07T03:25:06;14.15;;;7.03;;
73940;SDS011;62294;48.554;10.202;2022-12-07T03:27:41;13.75;;;6.65;;
73940;SDS011;62294;48.554;10.202;2022-12-07T03:30:15;15.25;;;7.47;;
73940;SDS011;62294;48.554;10.202;2022-12-07T03:32:55;13.10;;;7.25;;
73940;SDS011;62294;48.554;10.202;2022-12-07T03:35:31;16.25;;;7.20;;
73940;SDS011;62294;48.554;10.202;2022-12-07T03:40:59;13.95;;;7.35;;
73940;SDS011;62294;48.554;10.202;2022-12-07T03:43:29;14.88;;;7.20;;
73940;SDS011;62294;48.554;10.202;2022-12-07T03:48:33;18.10;;;7.32;;
73940;SDS011;62294;48.554;10.202;2022-12-07T03:51:22;13.57;;;6.43;;
73940;SDS011;62294;48.554;10.202;2022-12-07T03:53:56;16.88;;;7.32;;
73940;SDS011;62294;48.554;10.202;2022-12-07T03:56:29;17.85;;;7.93;;
73940;SDS011;62294;48.554;10.202;2022-12-07T03:58:56;16.60;;;7.32;;
73940;SDS011;62294;48.554;10.202;2022-12-07T04:01:23;17.48;;;7.35;;
73940;SDS011;62294;48.554;10.202;2022-12-07T04:03:51;15.60;;;7.38;;
73940;SDS011;62294;48.554;10.202;2022-12-07T04:06:17;13.32;;;6.47;;
73940;SDS011;62294;48.554;10.202;2022-12-07T04:08:43;15.70;;;7.97;;
73940;SDS011;62294;48.554;10.202;2022-12-07T04:11:10;13.73;;;6.68;;
73940;SDS011;62294;48.554;10.202;2022-12-07T04:13:36;15.23;;;7.32;;
73940;SDS011;62294;48.554;10.202;2022-12-07T04:16:23;13.55;;;7.25;;
73940;SDS011;62294;48.554;10.202;2022-12-07T04:18:50;14.05;;;6.55;;
73940;SDS011;62294;48.554;10.202;2022-12-07T04:21:16;13.65;;;6.47;;
73940;SDS011;62294;48.554;10.202;2022-12-07T04:23:43;16.30;;;7.20;;
73940;SDS011;62294;48.554;10.202;2022-12-07T04:26:09;16.90;;;7.75;;
73940;SDS011;62294;48.554;10.202;2022-12-07T04:28:36;13.90;;;7.93;;
73940;SDS011;62294;48.554;10.202;2022-12-07T04:31:02;15.48;;;7.10;;
73940;SDS011;62294;48.554;10.202;2022-12-07T04:33:29;13.27;;;6.00;;
73940;SDS011;62294;48.554;10.202;2022-12-07T04:35:55;14.68;;;6.63;;
73940;SDS011;62294;48.554;10.202;2022-12-07T04:38:24;14.32;;;6.53;;
73940;SDS011;62294;48.554;10.202;2022-12-07T04:40:50;11.32;;;4.65;;
73940;SDS011;62294;48.554;10.202;2022-12-07T04:43:17;11.18;;;6.10;;
73940;SDS011;62294;48.554;10.202;2022-12-07T04:45:46;12.63;;;6.65;;
73940;SDS011;62294;48.554;10.202;2022-12-07T04:48:13;16.85;;;7.45;;
73940;SDS011;62294;48.554;10.202;2022-12-07T04:50:41;13.98;;;6.63;;
73940;SDS011;62294;48.554;10.202;2022-12-07T04:53:11;13.80;;;6.57;;
73940;SDS011;62294;48.554;10.202;2022-12-07T04:55:38;14.52;;;7.15;;
73940;SDS011;62294;48.554;10.202;2022-12-07T04:58:04;15.73;;;7.65;;
73940;SDS011;62294;48.554;10.202;2022-12-07T05:00:31;15.73;;;7.72;;
73940;SDS011;62294;48.554;10.202;2022-12-07T05:02:57;15.93;;;7.57;;
73940;SDS011;62294;48.554;10.202;2022-12-07T05:05:24;15.48;;;7.45;;
73940;SDS011;62294;48.554;10.202;2022-12-07T05:07:51;14.52;;;6.80;;
73940;SDS011;62294;48.554;10.202;2022-12-07T05:10:17;16.40;;;7.60;;
73940;SDS011;62294;48.554;10.202;2022-12-07T05:12:43;14.63;;;7.25;;
73940;SDS011;62294;48.554;10.202;2022-12-07T05:15:11;14.57;;;6.72;;
73940;SDS011;62294;48.554;10.202;2022-12-07T05:17:38;16.02;;;7.68;;
73940;SDS011;62294;48.554;10.202;2022-12-07T05:20:05;14.32;;;7.13;;
73940;SDS011;62294;48.554;10.202;2022-12-07T05:22:32;12.90;;;7.07;;
73940;SDS011;62294;48.554;10.202;2022-12-07T05:24:58;17.27;;;8.07;;
73940;SDS011;62294;48.554;10.202;2022-12-07T05:27:25;17.65;;;7.70;;
73940;SDS011;62294;48.554;10.202;2022-12-07T05:29:52;15.43;;;8.07;;
73940;SDS011;62294;48.554;10.202;2022-12-07T05:32:18;18.00;;;8.35;;
73940;SDS011;62294;48.554;10.202;2022-12-07T05:34:45;15.93;;;7.95;;
73940;SDS011;62294;48.554;10.202;2022-12-07T05:37:12;15.88;;;7.97;;
73940;SDS011;62294;48.554;10.202;2022-12-07T05:39:38;14.38;;;7.40;;
73940;SDS011;62294;48.554;10.202;2022-12-07T05:42:07;15.88;;;6.63;;
73940;SDS011;62294;48.554;10.202;2022-12-07T05:44:39;13.77;;;7.45;;
73940;SDS011;62294;48.554;10.202;2022-12-07T05:47:13;19.65;;;7.97;;
73940;SDS011;62294;48.554;10.202;2022-12-07T05:49:40;15.13;;;7.85;;
73940;SDS011;62294;48.554;10.202;2022-12-07T05:52:06;16.48;;;8.13;;
73940;SDS011;62294;48.554;10.202;2022-12-07T05:54:33;18.20;;;8.38;;
73940;SDS011;62294;48.554;10.202;2022-12-07T05:57:00;19.45;;;8.93;;
73940;SDS011;62294;48.554;10.202;2022-12-07T05:59:26;13.98;;;7.13;;
73940;SDS011;62294;48.554;10.202;2022-12-07T06:01:58;14.57;;;6.00;;
73940;SDS011;62294;48.554;10.202;2022-12-07T06:04:27;13.13;;;6.63;;
73940;SDS011;62294;48.554;10.202;2022-12-07T06:06:56;14.75;;;6.70;;
73940;SDS011;62294;48.554;10.202;2022-12-07T06:09:23;14.13;;;6.53;;
73940;SDS011;62294;48.554;10.202;2022-12-07T06:11:51;15.68;;;6.68;;
73940;SDS011;62294;48.554;10.202;2022-12-07T06:14:37;17.88;;;7.38;;
73940;SDS011;62294;48.554;10.202;2022-12-07T06:17:03;16.20;;;7.30;;
73940;SDS011;62294;48.554;10.202;2022-12-07T06:19:31;14.95;;;6.38;;
73940;SDS011;62294;48.554;10.202;2022-12-07T06:21:58;12.40;;;6.72;;
73940;SDS011;62294;48.554;10.202;2022-12-07T06:24:25;14.57;;;7.22;;
73940;SDS011;62294;48.554;10.202;2022-12-07T06:26:51;16.65;;;7.43;;
73940;SDS011;62294;48.554;10.202;2022-12-07T06:29:18;19.67;;;7.68;;
73940;SDS011;62294;48.554;10.202;2022-12-07T06:31:45;13.15;;;6.65;;
73940;SDS011;62294;48.554;10.202;2022-12-07T06:34:13;12.88;;;5.93;;
73940;SDS011;62294;48.554;10.202;2022-12-07T06:36:41;14.55;;;6.53;;
73940;SDS011;62294;48.554;10.202;2022-12-07T06:39:07;14.98;;;7.47;;
73940;SDS011;62294;48.554;10.202;2022-12-07T06:41:36;15.05;;;7.25;;
73940;SDS011;62294;48.554;10.202;2022-12-07T06:44:03;13.68;;;7.28;;
73940;SDS011;62294;48.554;10.202;2022-12-07T06:46:30;16.95;;;7.32;;
73940;SDS011;62294;48.554;10.202;2022-12-07T06:48:57;15.13;;;7.32;;
73940;SDS011;62294;48.554;10.202;2022-12-07T06:51:24;14.65;;;6.80;;
73940;SDS011;62294;48.554;10.202;2022-12-07T06:53:50;12.93;;;6.30;;
73940;SDS011;62294;48.554;10.202;2022-12-07T06:56:17;13.63;;;6.15;;
73940;SDS011;62294;48.554;10.202;2022-12-07T06:58:43;12.05;;;6.45;;
73940;SDS011;62294;48.554;10.202;2022-12-07T07:01:11;13.27;;;6.15;;
73940;SDS011;62294;48.554;10.202;2022-12-07T07:03:42;13.13;;;5.25;;
73940;SDS011;62294;48.554;10.202;2022-12-07T07:06:10;13.55;;;4.97;;
73940;SDS011;62294;48.554;10.202;2022-12-07T07:08:37;8.10;;;3.90;;
73940;SDS011;62294;48.554;10.202;2022-12-07T07:11:05;10.02;;;5.15;;
73940;SDS011;62294;48.554;10.202;2022-12-07T07:13:32;7.40;;;4.55;;
73940;SDS011;62294;48.554;10.202;2022-12-07T07:15:59;7.25;;;3.63;;
73940;SDS011;62294;48.554;10.202;2022-12-07T07:18:26;9.55;;;4.63;;
73940;SDS011;62294;48.554;10.202;2022-12-07T07:20:53;11.73;;;4.45;;
73940;SDS011;62294;48.554;10.202;2022-12-07T07:23:20;8.05;;;4.63;;
73940;SDS011;62294;48.554;10.202;2022-12-07T07:25:47;7.63;;;4.28;;
73940;SDS011;62294;48.554;10.202;2022-12-07T07:28:15;11.23;;;5.40;;
73940;SDS011;62294;48.554;10.202;2022-12-07T07:30:42;11.38;;;5.22;;
73940;SDS011;62294;48.554;10.202;2022-12-07T07:33:09;12.60;;;6.65;;
73940;SDS011;62294;48.554;10.202;2022-12-07T07:35:36;13.13;;;6.03;;
73940;SDS011;62294;48.554;10.202;2022-12-07T07:38:03;14.20;;;7.38;;
73940;SDS011;62294;48.554;10.202;2022-12-07T07:40:30;10.52;;;5.07;;
73940;SDS011;62294;48.554;10.202;2022-12-07T07:42:57;13.40;;;6.35;;
73940;SDS011;62294;48.554;10.202;2022-12-07T07:45:25;11.90;;;5.45;;
73940;SDS011;62294;48.554;10.202;2022-12-07T07:47:52;15.23;;;6.75;;
73940;SDS011;62294;48.554;10.202;2022-12-07T07:50:19;10.32;;;5.90;;
73940;SDS011;62294;48.554;10.202;2022-12-07T07:52:47;11.40;;;6.32;;
73940;SDS011;62294;48.554;10.202;2022-12-07T07:55:14;11.90;;;5.05;;
73940;SDS011;62294;48.554;10.202;2022-12-07T07:57:41;10.25;;;5.22;;
73940;SDS011;62294;48.554;10.202;2022-12-07T08:00:09;12.07;;;6.28;;
73940;SDS011;62294;48.554;10.202;2022-12-07T08:02:40;12.07;;;5.75;;
73940;SDS011;62294;48.554;10.202;2022-12-07T08:05:12;12.48;;;5.43;;
73940;SDS011;62294;48.554;10.202;2022-12-07T08:07:40;12.55;;;6.45;;
73940;SDS011;62294;48.554;10.202;2022-12-07T08:10:08;12.07;;;5.03;;
73940;SDS011;62294;48.554;10.202;2022-12-07T08:12:37;9.63;;;4.20;;
73940;SDS011;62294;48.554;10.202;2022-12-07T08:15:25;8.65;;;3.92;;
73940;SDS011;62294;48.554;10.202;2022-12-07T08:17:53;10.13;;;4.97;;
73940;SDS011;62294;48.554;10.202;2022-12-07T08:20:20;10.25;;;5.32;;
73940;SDS011;62294;48.554;10.202;2022-12-07T08:22:47;11.23;;;4.43;;
73940;SDS011;62294;48.554;10.202;2022-12-07T08:25:13;10.55;;;4.82;;
73940;SDS011;62294;48.554;10.202;2022-12-07T08:27:40;8.57;;;4.95;;
73940;SDS011;62294;48.554;10.202;2022-12-07T08:30:07;10.68;;;4.25;;
73940;SDS011;62294;48.554;10.202;2022-12-07T08:32:33;9.40;;;4.00;;
73940;SDS011;62294;48.554;10.202;2022-12-07T08:35:00;7.15;;;3.63;;
73940;SDS011;62294;48.554;10.202;2022-12-07T08:37:26;6.78;;;3.92;;
73940;SDS011;62294;48.554;10.202;2022-12-07T08:39:53;12.07;;;4.13;;
73940;SDS011;62294;48.554;10.202;2022-12-07T08:42:20;7.78;;;4.05;;
73940;SDS011;62294;48.554;10.202;2022-12-07T08:44:49;9.18;;;4.30;;
73940;SDS011;62294;48.554;10.202;2022-12-07T08:47:15;8.20;;;3.92;;
73940;SDS011;62294;48.554;10.202;2022-12-07T08:49:43;8.10;;;4.60;;
73940;SDS011;62294;48.554;10.202;2022-12-07T08:52:13;8.70;;;4.00;;
73940;SDS011;62294;48.554;10.202;2022-12-07T08:54:40;8.90;;;4.30;;
73940;SDS011;62294;48.554;10.202;2022-12-07T08:57:08;9.48;;;4.30;;
73940;SDS011;62294;48.554;10.202;2022-12-07T08:59:36;9.32;;;4.65;;
73940;SDS011;62294;48.554;10.202;2022-12-07T09:02:04;9.93;;;4.70;;
73940;SDS011;62294;48.554;10.202;2022-12-07T09:04:31;7.38;;;4.22;;
73940;SDS011;62294;48.554;10.202;2022-12-07T09:06:58;8.55;;;4.45;;
73940;SDS011;62294;48.554;10.202;2022-12-07T09:09:25;7.93;;;3.25;;
73940;SDS011;62294;48.554;10.202;2022-12-07T09:11:51;9.85;;;4.13;;
73940;SDS011;62294;48.554;10.202;2022-12-07T09:14:18;10.88;;;4.28;;
73940;SDS011;62294;48.554;10.202;2022-12-07T09:16:44;8.63;;;3.88;;
73940;SDS011;62294;48.554;10.202;2022-12-07T09:19:11;6.80;;;3.67;;
73940;SDS011;62294;48.554;10.202;2022-12-07T09:21:38;10.52;;;4.00;;
73940;SDS011;62294;48.554;10.202;2022-12-07T09:24:05;7.93;;;3.63;;
73940;SDS011;62294;48.554;10.202;2022-12-07T09:26:31;9.20;;;3.58;;
73940;SDS011;62294;48.554;10.202;2022-12-07T09:28:58;6.50;;;3.13;;
73940;SDS011;62294;48.554;10.202;2022-12-07T09:31:25;8.60;;;3.75;;
73940;SDS011;62294;48.554;10.202;2022-12-07T09:33:59;11.93;;;3.40;;
73940;SDS011;62294;48.554;10.202;2022-12-07T09:36:27;7.10;;;3.47;;
73940;SDS011;62294;48.554;10.202;2022-12-07T09:38:54;9.75;;;3.88;;
73940;SDS011;62294;48.554;10.202;2022-12-07T09:41:21;7.15;;;3.33;;
73940;SDS011;62294;48.554;10.202;2022-12-07T09:43:49;7.80;;;3.70;;
73940;SDS011;62294;48.554;10.202;2022-12-07T09:46:16;9.43;;;3.75;;
73940;SDS011;62294;48.554;10.202;2022-12-07T09:48:45;9.23;;;4.10;;
73940;SDS011;62294;48.554;10.202;2022-12-07T09:51:14;7.80;;;3.13;;
73940;SDS011;62294;48.554;10.202;2022-12-07T09:53:49;8.73;;;4.00;;
73940;SDS011;62294;48.554;10.202;2022-12-07T09:56:18;7.18;;;3.28;;
73940;SDS011;62294;48.554;10.202;2022-12-07T09:58:46;4.88;;;3.30;;
73940;SDS011;62294;48.554;10.202;2022-12-07T10:01:17;9.25;;;3.85;;
73940;SDS011;62294;48.554;10.202;2022-12-07T10:03:55;6.63;;;2.95;;
73940;SDS011;62294;48.554;10.202;2022-12-07T10:06:31;6.03;;;2.70;;
73940;SDS011;62294;48.554;10.202;2022-12-07T10:08:58;8.20;;;3.10;;
73940;SDS011;62294;48.554;10.202;2022-12-07T10:11:24;5.78;;;2.50;;
73940;SDS011;62294;48.554;10.202;2022-12-07T10:13:52;8.55;;;3.53;;
73940;SDS011;62294;48.554;10.202;2022-12-07T10:18:56;5.68;;;2.97;;
73940;SDS011;62294;48.554;10.202;2022-12-07T10:21:23;4.25;;;2.55;;
73940;SDS011;62294;48.554;10.202;2022-12-07T10:26:33;7.18;;;2.97;;
73940;SDS011;62294;48.554;10.202;2022-12-07T10:29:14;14.68;;;4.63;;
73940;SDS011;62294;48.554;10.202;2022-12-07T10:31:42;6.32;;;2.75;;
73940;SDS011;62294;48.554;10.202;2022-12-07T10:53:27;7.50;;;3.97;;
73940;SDS011;62294;48.554;10.202;2022-12-07T11:12:30;8.13;;;4.30;;
73940;SDS011;62294;48.554;10.202;2022-12-07T11:17:58;6.43;;;3.25;;
73940;SDS011;62294;48.554;10.202;2022-12-07T11:26:55;8.02;;;3.30;;
73940;SDS011;62294;48.554;10.202;2022-12-07T11:29:28;6.00;;;2.83;;
73940;SDS011;62294;48.554;10.202;2022-12-07T11:34:49;5.95;;;3.08;;
73940;SDS011;62294;48.554;10.202;2022-12-07T11:37:36;4.43;;;2.92;;
73940;SDS011;62294;48.554;10.202;2022-12-07T11:40:20;9.75;;;3.25;;
73940;SDS011;62294;48.554;10.202;2022-12-07T11:42:59;5.85;;;2.33;;
73940;SDS011;62294;48.554;10.202;2022-12-07T11:45:31;4.80;;;2.40;;
73940;SDS011;62294;48.554;10.202;2022-12-07T11:48:06;17.10;;;4.20;;
73940;SDS011;62294;48.554;10.202;2022-12-07T11:50:42;4.60;;;2.22;;
73940;SDS011;62294;48.554;10.202;2022-12-07T11:53:14;4.35;;;2.30;;
73940;SDS011;62294;48.554;10.202;2022-12-07T12:01:24;9.05;;;2.58;;
73940;SDS011;62294;48.554;10.202;2022-12-07T12:04:07;3.67;;;2.35;;
73940;SDS011;62294;48.554;10.202;2022-12-07T12:06:43;3.63;;;2.15;;
73940;SDS011;62294;48.554;10.202;2022-12-07T12:09:19;8.88;;;2.85;;
73940;SDS011;62294;48.554;10.202;2022-12-07T12:17:56;5.22;;;2.28;;
73940;SDS011;62294;48.554;10.202;2022-12-07T12:26:18;10.27;;;3.00;;
73940;SDS011;62294;48.554;10.202;2022-12-07T12:28:52;2.78;;;2.13;;
73940;SDS011;62294;48.554;10.202;2022-12-07T12:33:53;4.38;;;2.10;;
73940;SDS011;62294;48.554;10.202;2022-12-07T12:36:25;5.28;;;2.50;;
73940;SDS011;62294;48.554;10.202;2022-12-07T12:46:54;8.00;;;2.65;;
73940;SDS011;62294;48.554;10.202;2022-12-07T12:49:35;4.43;;;2.30;;
73940;SDS011;62294;48.554;10.202;2022-12-07T12:55:00;6.60;;;2.30;;
73940;SDS011;62294;48.554;10.202;2022-12-07T12:57:38;4.82;;;2.00;;
73940;SDS011;62294;48.554;10.202;2022-12-07T13:00:18;31.88;;;5.05;;
73940;SDS011;62294;48.554;10.202;2022-12-07T13:02:53;3.53;;;2.25;;
73940;SDS011;62294;48.554;10.202;2022-12-07T13:05:22;4.18;;;2.13;;
73940;SDS011;62294;48.554;10.202;2022-12-07T13:07:55;7.15;;;2.13;;
73940;SDS011;62294;48.554;10.202;2022-12-07T13:18:01;4.18;;;1.73;;
73940;SDS011;62294;48.554;10.202;2022-12-07T13:23:09;6.65;;;2.28;;
73940;SDS011;62294;48.554;10.202;2022-12-07T13:25:38;3.85;;;2.08;;
73940;SDS011;62294;48.554;10.202;2022-12-07T13:28:15;4.82;;;2.30;;
73940;SDS011;62294;48.554;10.202;2022-12-07T13:30:50;5.15;;;2.47;;
73940;SDS011;62294;48.554;10.202;2022-12-07T13:33:27;4.57;;;2.47;;
73940;SDS011;62294;48.554;10.202;2022-12-07T13:35:55;4.10;;;2.10;;
73940;SDS011;62294;48.554;10.202;2022-12-07T13:38:25;4.35;;;2.20;;
73940;SDS011;62294;48.554;10.202;2022-12-07T13:43:41;7.15;;;2.30;;
73940;SDS011;62294;48.554;10.202;2022-12-07T13:46:08;3.63;;;1.95;;
73940;SDS011;62294;48.554;10.202;2022-12-07T13:48:45;4.45;;;1.95;;
73940;SDS011;62294;48.554;10.202;2022-12-07T13:51:33;4.07;;;2.15;;
73940;SDS011;62294;48.554;10.202;2022-12-07T13:54:06;9.43;;;2.90;;
73940;SDS011;62294;48.554;10.202;2022-12-07T13:56:36;5.18;;;3.00;;
73940;SDS011;62294;48.554;10.202;2022-12-07T13:59:04;7.60;;;3.17;;
73940;SDS011;62294;48.554;10.202;2022-12-07T14:01:36;6.50;;;2.85;;
73940;SDS011;62294;48.554;10.202;2022-12-07T14:06:51;6.75;;;2.42;;
73940;SDS011;62294;48.554;10.202;2022-12-07T14:09:19;8.73;;;3.58;;
73940;SDS011;62294;48.554;10.202;2022-12-07T14:11:49;4.15;;;2.17;;
73940;SDS011;62294;48.554;10.202;2022-12-07T14:14:18;11.70;;;3.42;;
73940;SDS011;62294;48.554;10.202;2022-12-07T14:22:30;5.68;;;2.05;;
73940;SDS011;62294;48.554;10.202;2022-12-07T14:27:32;6.18;;;2.97;;
73940;SDS011;62294;48.554;10.202;2022-12-07T14:30:01;7.15;;;2.50;;
73940;SDS011;62294;48.554;10.202;2022-12-07T14:32:29;4.85;;;2.42;;
73940;SDS011;62294;48.554;10.202;2022-12-07T14:35:17;6.03;;;2.58;;
73940;SDS011;62294;48.554;10.202;2022-12-07T14:37:45;7.13;;;3.03;;
73940;SDS011;62294;48.554;10.202;2022-12-07T14:40:15;3.90;;;2.55;;
73940;SDS011;62294;48.554;10.202;2022-12-07T14:42:44;6.60;;;2.97;;
73940;SDS011;62294;48.554;10.202;2022-12-07T14:45:14;6.25;;;2.35;;
73940;SDS011;62294;48.554;10.202;2022-12-07T14:47:43;5.20;;;2.50;;
73940;SDS011;62294;48.554;10.202;2022-12-07T14:50:32;4.88;;;2.15;;
73940;SDS011;62294;48.554;10.202;2022-12-07T14:53:06;4.00;;;2.70;;
73940;SDS011;62294;48.554;10.202;2022-12-07T14:55:54;5.35;;;2.80;;
73940;SDS011;62294;48.554;10.202;2022-12-07T14:58:20;3.63;;;2.05;;
73940;SDS011;62294;48.554;10.202;2022-12-07T15:00:47;5.30;;;2.92;;
73940;SDS011;62294;48.554;10.202;2022-12-07T15:03:14;6.57;;;3.53;;
73940;SDS011;62294;48.554;10.202;2022-12-07T15:05:40;6.88;;;2.95;;
73940;SDS011;62294;48.554;10.202;2022-12-07T15:08:11;9.70;;;5.22;;
73940;SDS011;62294;48.554;10.202;2022-12-07T15:10:39;9.43;;;4.85;;
73940;SDS011;62294;48.554;10.202;2022-12-07T15:13:06;6.30;;;3.72;;
73940;SDS011;62294;48.554;10.202;2022-12-07T15:15:52;7.55;;;4.18;;
73940;SDS011;62294;48.554;10.202;2022-12-07T15:18:21;10.40;;;5.13;;
73940;SDS011;62294;48.554;10.202;2022-12-07T15:20:49;12.93;;;7.65;;
73940;SDS011;62294;48.554;10.202;2022-12-07T15:23:17;14.30;;;4.47;;
73940;SDS011;62294;48.554;10.202;2022-12-07T15:25:44;10.48;;;5.18;;
73940;SDS011;62294;48.554;10.202;2022-12-07T15:28:13;8.38;;;4.40;;
73940;SDS011;62294;48.554;10.202;2022-12-07T15:30:40;10.85;;;4.88;;
73940;SDS011;62294;48.554;10.202;2022-12-07T15:33:11;8.60;;;5.07;;
73940;SDS011;62294;48.554;10.202;2022-12-07T15:35:44;8.20;;;4.50;;
73940;SDS011;62294;48.554;10.202;2022-12-07T15:38:12;10.50;;;4.85;;
73940;SDS011;62294;48.554;10.202;2022-12-07T15:40:38;11.15;;;5.72;;
73940;SDS011;62294;48.554;10.202;2022-12-07T15:43:05;9.93;;;4.88;;
73940;SDS011;62294;48.554;10.202;2022-12-07T15:45:52;10.50;;;5.25;;
73940;SDS011;62294;48.554;10.202;2022-12-07T15:48:18;7.72;;;4.70;;
73940;SDS011;62294;48.554;10.202;2022-12-07T15:51:01;14.13;;;4.80;;
73940;SDS011;62294;48.554;10.202;2022-12-07T15:53:31;10.50;;;5.15;;
73940;SDS011;62294;48.554;10.202;2022-12-07T15:55:57;10.18;;;4.60;;
73940;SDS011;62294;48.554;10.202;2022-12-07T15:58:24;10.13;;;4.45;;
73940;SDS011;62294;48.554;10.202;2022-12-07T16:00:51;8.70;;;4.72;;
73940;SDS011;62294;48.554;10.202;2022-12-07T16:03:17;11.32;;;4.97;;
73940;SDS011;62294;48.554;10.202;2022-12-07T16:05:50;11.75;;;5.28;;
73940;SDS011;62294;48.554;10.202;2022-12-07T16:08:18;10.30;;;4.38;;
73940;SDS011;62294;48.554;10.202;2022-12-07T16:10:45;14.43;;;4.88;;
73940;SDS011;62294;48.554;10.202;2022-12-07T16:13:12;9.88;;;4.45;;
73940;SDS011;62294;48.554;10.202;2022-12-07T16:15:40;11.60;;;4.43;;
73940;SDS011;62294;48.554;10.202;2022-12-07T16:18:07;10.93;;;5.47;;
73940;SDS011;62294;48.554;10.202;2022-12-07T16:20:34;8.55;;;4.45;;
73940;SDS011;62294;48.554;10.202;2022-12-07T16:23:01;13.13;;;5.28;;
73940;SDS011;62294;48.554;10.202;2022-12-07T16:25:28;10.00;;;4.65;;
73940;SDS011;62294;48.554;10.202;2022-12-07T16:27:54;8.95;;;4.32;;
73940;SDS011;62294;48.554;10.202;2022-12-07T16:30:21;7.53;;;3.83;;
73940;SDS011;62294;48.554;10.202;2022-12-07T16:32:47;17.90;;;7.85;;
73940;SDS011;62294;48.554;10.202;2022-12-07T16:35:14;11.88;;;5.50;;
73940;SDS011;62294;48.554;10.202;2022-12-07T16:37:41;8.80;;;4.22;;
73940;SDS011;62294;48.554;10.202;2022-12-07T16:40:08;12.23;;;6.13;;
73940;SDS011;62294;48.554;10.202;2022-12-07T16:42:36;11.68;;;6.13;;
73940;SDS011;62294;48.554;10.202;2022-12-07T16:45:02;10.38;;;4.80;;
73940;SDS011;62294;48.554;10.202;2022-12-07T16:47:30;9.07;;;4.65;;
73940;SDS011;62294;48.554;10.202;2022-12-07T16:49:56;10.88;;;4.72;;